Time;durP1;ratioP1;P1;durP2;ratioP2;P2;SDS_P1;SDS_P2;PMS_P1;PMS_P2;Temp;Humidity;BMP_temperature;BMP_pressure;BME280_temperature;BME280_humidity;BME280_pressure;Samples;Min_cycle;Max_cycle;Signal;HPM_P1;HPM_P2
2023/06/06 00:01:43;;;;;;;13.30;8.05;;;;;;;12.30;93.66;102052.47;4862048;29;20034;-80
2023/06/06 00:04:08;;;;;;;13.23;8.52;;;;;;;12.12;93.52;102026.66;4860982;29;20280;-80
2023/06/06 00:06:35;;;;;;;12.38;7.63;;;;;;;12.12;94.11;102047.38;4862107;29;20086;-80
2023/06/06 00:09:00;;;;;;;13.15;8.27;;;;;;;12.05;94.43;102033.88;4861986;29;20385;-80
2023/06/06 00:11:28;;;;;;;12.23;8.15;;;;;;;12.00;94.54;102031.53;4861928;29;20029;-79
2023/06/06 00:13:54;;;;;;;15.13;8.65;;;;;;;12.10;94.76;102062.16;4861956;29;20037;-81
2023/06/06 00:16:20;;;;;;;12.80;8.30;;;;;;;12.04;94.85;102053.75;4861805;29;20081;-77
2023/06/06 00:18:45;;;;;;;12.90;8.15;;;;;;;12.00;95.22;102052.25;4861880;29;20034;-79
2023/06/06 00:21:13;;;;;;;14.60;9.15;;;;;;;11.96;95.24;102058.47;4861794;29;20034;-80
2023/06/06 00:23:38;;;;;;;12.77;8.40;;;;;;;11.91;95.29;102044.09;4861760;29;20033;-76
2023/06/06 00:26:04;;;;;;;13.32;8.52;;;;;;;11.84;95.39;102045.31;4861651;29;20034;-79
2023/06/06 00:28:29;;;;;;;16.10;8.70;;;;;;;11.78;95.87;102048.97;4861631;29;20030;-79
2023/06/06 00:30:54;;;;;;;13.38;8.93;;;;;;;11.53;96.07;102013.13;4861648;29;20090;-79
2023/06/06 00:33:20;;;;;;;13.35;8.85;;;;;;;11.74;96.56;102060.41;4861480;29;20113;-77
2023/06/06 00:35:45;;;;;;;13.65;8.00;;;;;;;11.70;96.67;102053.69;4860072;29;20170;-77
2023/06/06 00:38:11;;;;;;;15.55;9.18;;;;;;;11.63;97.04;102047.16;4860115;29;20072;-80
2023/06/06 00:40:36;;;;;;;12.95;8.65;;;;;;;11.60;97.35;102053.31;4861355;29;20041;-79
2023/06/06 00:43:01;;;;;;;14.07;9.05;;;;;;;11.48;97.45;102038.34;4860099;29;20037;-78
2023/06/06 00:45:27;;;;;;;13.40;8.05;;;;;;;11.39;97.45;102018.94;4861343;29;20390;-77
2023/06/06 00:47:52;;;;;;;14.60;9.15;;;;;;;11.55;97.55;102054.44;4861018;29;20045;-77
2023/06/06 00:50:18;;;;;;;14.95;8.77;;;;;;;11.48;97.79;102048.69;4861170;29;20026;-76
2023/06/06 00:52:46;;;;;;;13.30;8.05;;;;;;;11.40;97.70;102045.63;4861333;29;20439;-76
2023/06/06 00:55:17;;;;;;;14.30;8.35;;;;;;;11.31;98.10;102043.50;4861104;29;20033;-76
2023/06/06 00:57:44;;;;;;;15.80;8.85;;;;;;;11.37;98.39;102058.72;4861099;29;20516;-79
2023/06/06 01:00:10;;;;;;;13.63;8.48;;;;;;;11.33;98.50;102054.59;4861175;29;20029;-76
2023/06/06 01:02:37;;;;;;;16.52;9.48;;;;;;;11.19;98.78;102031.97;4860888;29;20033;-76
2023/06/06 01:05:09;;;;;;;15.50;9.35;;;;;;;11.06;99.03;102026.53;4861299;29;20086;-76
2023/06/06 01:07:35;;;;;;;13.13;9.02;;;;;;;11.08;99.20;102029.03;4860971;29;20030;-76
2023/06/06 01:10:02;;;;;;;13.82;8.80;;;;;;;11.24;99.18;102050.69;4860471;29;20041;-77
2023/06/06 01:12:55;;;;;;;14.27;8.75;;;;;;;11.22;98.83;102049.09;4860764;29;20427;-79
2023/06/06 01:15:47;;;;;;;13.15;8.20;;;;;;;11.10;98.82;102038.38;4859693;29;20037;-76
2023/06/06 01:18:13;;;;;;;15.65;9.13;;;;;;;11.07;99.38;102051.47;4803773;29;20053;-77
2023/06/06 01:20:40;;;;;;;14.48;8.98;;;;;;;10.85;99.81;102022.34;4804057;29;20042;-79
2023/06/06 01:23:06;;;;;;;14.15;9.00;;;;;;;11.03;99.95;102052.53;4804044;29;20042;-80
2023/06/06 01:25:34;;;;;;;21.75;9.30;;;;;;;10.98;100.00;102057.03;4803478;29;20039;-77
2023/06/06 01:28:00;;;;;;;14.55;8.75;;;;;;;10.96;100.00;102050.28;4803876;29;20517;-77
2023/06/06 01:30:27;;;;;;;14.80;9.13;;;;;;;10.90;100.00;102056.53;4803759;29;20118;-77
2023/06/06 01:33:02;;;;;;;17.30;9.07;;;;;;;10.90;100.00;102059.13;4803979;29;20035;-80
2023/06/06 01:35:27;;;;;;;14.90;8.75;;;;;;;10.81;100.00;102056.94;4803858;29;20039;-80
2023/06/06 01:38:17;;;;;;;15.00;8.77;;;;;;;10.72;100.00;102045.31;4803661;29;20042;-81
2023/06/06 01:40:44;;;;;;;14.40;8.93;;;;;;;10.63;100.00;102040.53;4794088;29;20442;-80
2023/06/06 01:43:10;;;;;;;16.38;8.88;;;;;;;10.52;100.00;102022.94;4803511;29;20088;-78
2023/06/06 01:45:38;;;;;;;13.52;8.70;;;;;;;10.52;100.00;102025.50;4803739;29;20531;-81
2023/06/06 01:48:04;;;;;;;16.17;8.75;;;;;;;10.64;100.00;102060.28;4803392;29;20049;-80
2023/06/06 01:50:32;;;;;;;14.88;8.95;;;;;;;10.64;100.00;102052.53;4803617;29;20478;-79
2023/06/06 01:52:57;;;;;;;15.05;8.98;;;;;;;10.62;100.00;102044.88;4803312;29;20038;-78
2023/06/06 01:55:23;;;;;;;14.63;9.00;;;;;;;10.48;100.00;102025.69;4837547;29;20101;-77
2023/06/06 01:57:48;;;;;;;16.25;9.10;;;;;;;10.58;100.00;102051.06;4860296;29;20030;-79
2023/06/06 02:00:15;;;;;;;13.75;8.85;;;;;;;10.52;100.00;102045.31;4860270;29;20033;-79
2023/06/06 02:02:41;;;;;;;15.23;8.43;;;;;;;10.47;100.00;102048.09;4859053;29;20471;-80
2023/06/06 02:05:06;;;;;;;15.60;9.38;;;;;;;10.40;100.00;102040.69;4860405;29;20030;-80
2023/06/06 02:07:34;;;;;;;15.02;9.25;;;;;;;10.30;100.00;102033.31;4858966;29;20475;-80
2023/06/06 02:10:00;;;;;;;13.43;8.43;;;;;;;10.33;100.00;102047.88;4860364;29;20057;-80
2023/06/06 02:12:26;;;;;;;14.95;8.80;;;;;;;10.27;100.00;102048.13;4860162;29;20036;-80
2023/06/06 02:14:54;;;;;;;14.13;8.70;;;;;;;10.15;100.00;102036.53;4860176;29;20029;-80
2023/06/06 02:17:19;;;;;;;14.05;8.30;;;;;;;10.25;100.00;102047.34;4860119;29;20619;-80
2023/06/06 02:19:45;;;;;;;16.52;9.40;;;;;;;10.05;100.00;102023.16;4860108;29;20104;-80
2023/06/06 02:22:10;;;;;;;15.63;8.82;;;;;;;10.06;100.00;102032.59;4860968;29;20041;-79
2023/06/06 02:24:36;;;;;;;17.65;10.02;;;;;;;10.18;100.00;102058.78;4864278;29;20029;-79
2023/06/06 02:27:02;;;;;;;15.77;9.23;;;;;;;10.17;100.00;102060.53;4863669;29;20078;-79
2023/06/06 02:29:27;;;;;;;15.65;8.93;;;;;;;9.99;100.00;102030.31;4863810;29;20030;-80
2023/06/06 02:31:53;;;;;;;13.52;8.82;;;;;;;10.08;100.00;102048.00;4863812;29;20082;-80
2023/06/06 02:34:19;;;;;;;15.70;9.05;;;;;;;10.09;100.00;102047.09;4863694;29;20065;-80
2023/06/06 02:36:45;;;;;;;15.93;9.43;;;;;;;9.94;100.00;102024.53;4863641;29;20109;-80
2023/06/06 02:39:10;;;;;;;14.13;8.50;;;;;;;10.01;100.00;102052.56;4863593;29;20030;-80
2023/06/06 02:41:36;;;;;;;15.55;9.18;;;;;;;9.83;100.00;102032.66;4863573;29;20430;-80
2023/06/06 02:44:02;;;;;;;15.52;9.13;;;;;;;9.91;100.00;102053.00;4863315;29;20366;-80
2023/06/06 02:46:27;;;;;;;16.75;9.77;;;;;;;9.91;100.00;102051.25;4863740;29;20034;-80
2023/06/06 02:48:53;;;;;;;13.40;9.43;;;;;;;9.87;100.00;102052.31;4863242;29;20455;-79
2023/06/06 02:51:22;;;;;;;14.57;9.13;;;;;;;9.87;100.00;102052.31;4863433;29;20037;-79
2023/06/06 02:53:48;;;;;;;15.60;8.75;;;;;;;9.76;100.00;102034.69;4863201;29;20423;-80
2023/06/06 02:56:14;;;;;;;12.63;7.88;;;;;;;9.78;100.00;102032.88;4863033;29;20033;-81
2023/06/06 02:58:40;;;;;;;13.10;8.93;;;;;;;9.75;100.00;102043.31;4862143;29;20363;-80
2023/06/06 03:01:06;;;;;;;14.07;8.48;;;;;;;9.70;100.00;102034.91;4863247;29;20131;-79
2023/06/06 03:03:31;;;;;;;16.80;9.05;;;;;;;9.81;100.00;102059.44;4862026;29;20033;-79
2023/06/06 03:05:58;;;;;;;15.68;9.77;;;;;;;9.72;100.00;102051.16;4863352;29;20036;-80
2023/06/06 03:08:24;;;;;;;17.05;9.40;;;;;;;9.78;100.00;102068.16;4863044;29;20034;-78
2023/06/06 03:10:51;;;;;;;15.95;9.40;;;;;;;9.74;100.00;102059.72;4863114;29;20033;-79
2023/06/06 03:13:16;;;;;;;15.38;8.32;;;;;;;9.69;100.00;102056.44;4861730;29;20033;-79
2023/06/06 03:15:46;;;;;;;12.80;7.78;;;;;;;9.75;100.00;102066.53;4880159;29;20044;-80
2023/06/06 03:18:16;;;;;;;15.43;9.45;;;;;;;9.73;100.00;102064.91;4888000;23;20061;-79
2023/06/06 03:20:44;;;;;;;13.38;9.05;;;;;;;9.76;100.00;102069.97;4880201;29;20048;-80
2023/06/06 03:23:12;;;;;;;14.85;8.70;;;;;;;9.63;100.00;102041.22;4881340;29;20044;-80
2023/06/06 03:25:43;;;;;;;16.15;9.55;;;;;;;9.71;100.00;102067.53;4865095;29;20033;-80
2023/06/06 03:28:09;;;;;;;13.00;8.73;;;;;;;9.68;100.00;102064.25;4881235;29;20480;-80
2023/06/06 03:30:34;;;;;;;15.73;9.23;;;;;;;9.61;100.00;102060.22;4881396;29;20037;-80
2023/06/06 03:33:00;;;;;;;16.40;9.00;;;;;;;9.62;100.00;102061.91;4881067;29;20033;-79
2023/06/06 03:35:30;;;;;;;13.25;9.30;;;;;;;9.63;100.00;102064.41;4881410;29;20025;-80
2023/06/06 03:37:57;;;;;;;16.83;8.98;;;;;;;9.57;100.00;102059.53;4880996;29;20462;-80
2023/06/06 03:40:25;;;;;;;13.73;8.85;;;;;;;9.62;100.00;102061.91;4879975;29;20040;-80
2023/06/06 03:42:51;;;;;;;15.35;9.40;;;;;;;9.58;100.00;102062.94;4881007;29;20397;-80
2023/06/06 03:45:17;;;;;;;14.43;8.98;;;;;;;9.53;100.00;102062.25;4880819;29;20029;-80
2023/06/06 03:47:43;;;;;;;16.13;9.73;;;;;;;9.48;100.00;102050.41;4880781;29;20124;-80
2023/06/06 03:50:09;;;;;;;14.05;8.32;;;;;;;9.38;100.00;102038.78;4881158;29;20557;-80
2023/06/06 03:52:34;;;;;;;16.42;9.60;;;;;;;9.55;100.00;102066.50;4880629;29;20029;-80
2023/06/06 03:55:00;;;;;;;17.40;9.43;;;;;;;9.57;100.00;102066.41;4880879;29;20500;-80
2023/06/06 03:57:26;;;;;;;15.55;9.65;;;;;;;9.42;100.00;102048.03;4880785;29;20033;-80
2023/06/06 03:59:51;;;;;;;15.15;8.95;;;;;;;9.56;100.00;102069.91;4880629;29;20036;-79
2023/06/06 04:02:17;;;;;;;14.57;8.93;;;;;;;9.54;100.00;102066.53;4880756;29;20033;-79
2023/06/06 04:04:43;;;;;;;18.60;10.02;;;;;;;9.59;100.00;102062.88;4880785;29;20091;-80
2023/06/06 04:07:09;;;;;;;17.95;9.25;;;;;;;9.59;100.00;102064.63;4880602;29;20028;-79
2023/06/06 04:09:35;;;;;;;16.52;10.25;;;;;;;9.65;100.00;102066.97;4880509;29;20041;-79
2023/06/06 04:12:01;;;;;;;15.07;8.85;;;;;;;9.60;100.00;102048.25;4880505;29;20033;-79
2023/06/06 04:14:27;;;;;;;14.85;9.30;;;;;;;9.47;100.00;102027.25;4880479;29;20441;-80
2023/06/06 04:16:53;;;;;;;18.10;9.43;;;;;;;9.60;100.00;102043.09;4880537;29;20032;-80
2023/06/06 04:19:18;;;;;;;14.35;8.95;;;;;;;9.76;100.00;102065.63;4880149;29;20064;-80
2023/06/06 04:21:43;;;;;;;16.50;9.40;;;;;;;9.80;100.00;102055.19;4880476;29;20025;-80
2023/06/06 04:24:10;;;;;;;16.50;10.07;;;;;;;9.82;100.00;102048.22;4880445;29;20029;-80
2023/06/06 04:26:36;;;;;;;16.52;9.60;;;;;;;9.91;100.00;102040.94;4880509;29;20025;-80
2023/06/06 04:29:02;;;;;;;18.17;10.30;;;;;;;9.91;100.00;102030.63;4882927;23;20110;-80
2023/06/06 04:31:29;;;;;;;16.08;9.70;;;;;;;10.23;100.00;102062.06;4843340;29;20482;-80
2023/06/06 04:33:55;;;;;;;15.93;9.80;;;;;;;10.37;100.00;102067.47;4843081;29;20038;-81
2023/06/06 04:36:23;;;;;;;18.83;9.48;;;;;;;10.50;100.00;102065.19;4843058;29;20090;-80
2023/06/06 04:38:50;;;;;;;15.82;8.95;;;;;;;10.57;100.00;102069.22;4842917;29;20463;-80
2023/06/06 04:41:16;;;;;;;16.40;8.85;;;;;;;10.58;100.00;102068.28;4843022;29;20390;-80
2023/06/06 04:43:42;;;;;;;16.95;9.10;;;;;;;10.57;100.00;102064.88;4841725;29;20042;-79
2023/06/06 04:46:08;;;;;;;15.90;9.30;;;;;;;10.47;100.00;102053.25;4841136;29;20129;-79
2023/06/06 04:48:33;;;;;;;17.15;9.35;;;;;;;10.44;100.00;102048.25;4842760;29;20451;-80
2023/06/06 04:50:59;;;;;;;14.40;9.25;;;;;;;10.56;100.00;102067.53;4843000;29;20124;-80
2023/06/06 04:53:25;;;;;;;18.58;9.50;;;;;;;10.57;100.00;102058.88;4842873;29;20030;-80
2023/06/06 04:55:53;;;;;;;15.77;9.80;;;;;;;10.26;100.00;101998.22;4842955;29;20053;-80
2023/06/06 04:58:21;;;;;;;21.98;10.55;;;;;;;10.67;100.00;102064.47;4842722;29;20022;-80
2023/06/06 05:00:47;;;;;;;17.92;9.50;;;;;;;10.55;100.00;102029.69;4842821;29;20470;-80
2023/06/06 05:03:16;;;;;;;18.10;9.90;;;;;;;10.93;100.00;102059.00;4842455;29;20100;-77
2023/06/06 05:05:42;;;;;;;15.98;9.45;;;;;;;11.10;99.68;102037.53;4842862;29;20484;-81
2023/06/06 05:08:07;;;;;;;17.83;9.40;;;;;;;11.44;97.85;102063.53;4842555;29;20033;-80
2023/06/06 05:10:32;;;;;;;14.07;9.07;;;;;;;11.60;96.71;102058.50;4842633;29;20030;-79
2023/06/06 05:12:58;;;;;;;14.10;8.73;;;;;;;11.84;95.50;102066.84;4842463;29;20026;-79
2023/06/06 05:15:23;;;;;;;15.25;9.02;;;;;;;11.98;94.49;102063.56;4842599;29;20033;-83
2023/06/06 05:17:56;;;;;;;13.23;8.85;;;;;;;12.06;93.62;102048.50;4842406;29;20029;-82
2023/06/06 05:20:23;;;;;;;14.90;9.25;;;;;;;12.44;92.67;102067.28;4841098;29;20132;-81
2023/06/06 05:22:49;;;;;;;17.10;9.32;;;;;;;12.83;91.49;102067.00;4911194;23;20545;-82
2023/06/06 05:25:15;;;;;;;12.70;8.20;;;;;;;13.29;88.04;102064.56;4879346;29;20025;-82
2023/06/06 05:27:46;;;;;;;14.35;8.45;;;;;;;13.72;86.01;102041.41;4879273;29;20049;-82
2023/06/06 05:30:12;;;;;;;35.22;9.57;;;;;;;14.64;82.07;102061.09;4879292;29;20043;-80
2023/06/06 05:32:37;;;;;;;15.70;7.65;;;;;;;15.16;77.95;102054.47;4879205;29;20473;-82
2023/06/06 05:35:04;;;;;;;12.27;7.88;;;;;;;15.84;74.04;102053.63;4877898;29;20120;-81
2023/06/06 05:37:29;;;;;;;13.95;8.63;;;;;;;16.33;71.34;102064.22;4879171;29;20033;-82
2023/06/06 05:39:55;;;;;;;13.52;7.70;;;;;;;16.76;71.00;102058.69;4878984;29;20116;-81
2023/06/06 05:42:22;;;;;;;12.30;7.43;;;;;;;17.42;66.25;102057.47;4877840;29;20033;-81
2023/06/06 05:44:50;;;;;;;11.18;7.15;;;;;;;17.52;65.59;102058.47;4878923;29;20104;-80
2023/06/06 05:47:16;;;;;;;13.07;7.80;;;;;;;17.99;63.04;102056.75;4878900;29;20029;-81
2023/06/06 05:49:41;;;;;;;12.15;6.95;;;;;;;18.03;62.20;102064.28;4879032;29;20496;-80
2023/06/06 05:52:06;;;;;;;12.70;7.65;;;;;;;18.05;61.32;102080.66;4878970;29;20446;-82
2023/06/06 05:54:31;;;;;;;10.85;7.13;;;;;;;18.26;62.18;102082.63;4878839;29;20072;-82
2023/06/06 05:57:02;;;;;;;12.20;8.02;;;;;;;18.75;60.60;102034.41;4878722;29;20033;-82
2023/06/06 05:59:27;;;;;;;11.88;7.22;;;;;;;19.53;56.87;102084.00;4878510;29;20033;-77
2023/06/06 06:01:52;;;;;;;10.07;7.07;;;;;;;19.64;56.33;102077.91;4878752;29;20362;-80
2023/06/06 06:04:19;;;;;;;10.73;7.43;;;;;;;19.72;57.18;102076.34;4878814;29;20529;-78
2023/06/06 06:06:48;;;;;;;10.85;6.88;;;;;;;19.69;54.66;102031.22;4878797;29;20063;-78
2023/06/06 06:09:16;;;;;;;11.68;7.53;;;;;;;19.63;55.69;102065.78;4878810;29;20488;-77
2023/06/06 06:11:41;;;;;;;11.95;7.47;;;;;;;20.25;53.57;102073.66;4878779;29;20040;-77
2023/06/06 06:14:06;;;;;;;9.30;6.07;;;;;;;20.64;55.64;102081.75;4893707;29;20037;-78
2023/06/06 06:16:31;;;;;;;10.43;6.63;;;;;;;21.66;51.31;102069.31;4897616;29;20028;-77
2023/06/06 06:18:57;;;;;;;9.27;6.28;;;;;;;22.00;49.94;102070.50;4897181;29;20390;-77
2023/06/06 06:21:24;;;;;;;10.25;6.82;;;;;;;22.38;49.04;102060.91;4897505;29;20037;-80
2023/06/06 06:23:50;;;;;;;9.30;6.32;;;;;;;22.42;49.89;102064.06;4897178;29;20040;-80
2023/06/06 06:26:16;;;;;;;11.80;6.28;;;;;;;22.61;47.30;102056.97;4897250;29;20064;-78
2023/06/06 06:28:42;;;;;;;8.60;5.78;;;;;;;22.54;48.49;102055.03;4897210;29;20076;-82
2023/06/06 06:31:08;;;;;;;11.07;6.38;;;;;;;22.89;48.13;102073.59;4897132;29;20032;-78
2023/06/06 06:33:33;;;;;;;12.32;6.47;;;;;;;23.43;47.52;102076.31;4896171;29;20426;-80
2023/06/06 06:36:00;;;;;;;9.32;6.28;;;;;;;23.82;43.61;102062.84;4896887;29;20025;-78
2023/06/06 06:38:25;;;;;;;10.70;6.40;;;;;;;23.63;45.03;102062.03;4897106;29;20036;-79
2023/06/06 06:40:51;;;;;;;10.48;6.18;;;;;;;23.75;43.67;102055.53;4896745;29;20021;-79
2023/06/06 06:43:16;;;;;;;10.77;6.18;;;;;;;23.72;44.07;102069.03;4897314;29;20032;-79
2023/06/06 06:45:42;;;;;;;11.02;6.65;;;;;;;23.71;43.99;102077.09;4897028;29;20068;-82
2023/06/06 06:48:07;;;;;;;10.68;6.25;;;;;;;23.28;45.29;102070.72;4897230;29;20024;-82
2023/06/06 06:50:32;;;;;;;9.77;5.75;;;;;;;22.96;46.69;102079.13;4897258;29;20437;-77
2023/06/06 06:53:07;;;;;;;11.68;6.75;;;;;;;23.22;45.14;102042.34;4897263;29;20036;-80
2023/06/06 06:55:34;;;;;;;13.68;7.40;;;;;;;23.63;43.01;102064.69;4895773;29;20548;-80
2023/06/06 06:58:01;;;;;;;10.52;6.00;;;;;;;23.90;44.55;102065.56;4896259;29;20499;-81
2023/06/06 07:00:33;;;;;;;9.55;6.32;;;;;;;24.45;44.98;102070.53;4896931;29;20421;-84
2023/06/06 07:03:14;;;;;;;13.35;6.93;;;;;;;24.20;44.85;101979.81;4897211;29;20024;-85
2023/06/06 07:05:42;;;;;;;9.60;6.33;;;;;;;24.70;42.49;102074.94;4896901;29;20032;-85
2023/06/06 07:08:07;;;;;;;9.73;6.50;;;;;;;24.05;40.33;102011.22;4897582;29;20713;-85
2023/06/06 07:10:33;;;;;;;9.75;6.38;;;;;;;23.82;42.11;102031.19;4900405;29;20067;-79
2023/06/06 07:13:15;;;;;;;10.15;5.90;;;;;;;23.90;44.48;102084.03;4899458;29;20032;-80
2023/06/06 07:15:40;;;;;;;10.90;5.97;;;;;;;24.46;42.65;102088.03;4940293;23;20048;-84
2023/06/06 07:18:06;;;;;;;12.60;6.82;;;;;;;24.37;40.91;101978.91;4862926;29;20037;-81
2023/06/06 07:20:31;;;;;;;9.82;7.13;;;;;;;25.20;40.25;102070.69;4863008;29;20110;-81
2023/06/06 07:22:57;;;;;;;10.07;6.35;;;;;;;24.76;40.72;102053.16;4941181;23;20081;-78
2023/06/06 07:25:25;;;;;;;11.35;6.97;;;;;;;23.91;41.15;101959.03;4881454;29;20104;-77
2023/06/06 07:27:52;;;;;;;12.43;7.25;;;;;;;24.69;41.12;102057.44;4881346;29;20053;-79
2023/06/06 07:30:18;;;;;;;12.32;7.15;;;;;;;25.04;40.06;102076.75;4880968;29;20537;-78
2023/06/06 07:32:46;;;;;;;12.00;7.50;;;;;;;24.70;39.94;102074.94;4881271;29;20033;-75
2023/06/06 07:35:14;;;;;;;11.32;7.15;;;;;;;23.93;41.22;102046.78;4881256;29;20029;-81
2023/06/06 07:37:42;;;;;;;11.00;7.55;;;;;;;23.35;43.96;102074.44;4881592;29;20033;-81
2023/06/06 07:40:34;;;;;;;11.93;7.47;;;;;;;22.16;46.88;102072.59;4881002;29;20037;-82
2023/06/06 07:42:59;;;;;;;12.90;7.43;;;;;;;20.00;49.11;101909.72;4867224;29;20045;-79
2023/06/06 07:45:46;;;;;;;10.88;7.07;;;;;;;18.79;52.64;101897.16;4884614;29;20031;-82
2023/06/06 07:48:23;;;;;;;12.93;7.40;;;;;;;18.04;55.55;101924.78;4882549;29;20037;-78
2023/06/06 07:50:49;;;;;;;12.88;7.75;;;;;;;18.41;57.63;102064.94;4891822;29;20100;-82
2023/06/06 07:53:14;;;;;;;11.60;7.63;;;;;;;18.30;58.68;102063.16;4900632;29;20037;-79
2023/06/06 07:55:40;;;;;;;13.25;7.65;;;;;;;17.97;58.91;102041.19;4899741;29;20029;-80
2023/06/06 07:58:12;;;;;;;10.95;6.97;;;;;;;17.73;61.27;101959.44;4897569;29;20044;-80
2023/06/06 08:00:39;;;;;;;;;;;;;;;18.49;58.93;102058.19;4899898;29;20148;-82
2023/06/06 08:03:04;;;;;;;11.55;7.70;;;;;;;18.06;60.33;102069.25;4898239;29;20275;-77
2023/06/06 08:05:39;;;;;;;14.18;7.82;;;;;;;17.77;60.36;102047.06;4899219;29;20024;-77
2023/06/06 08:08:06;;;;;;;11.52;8.10;;;;;;;17.45;61.73;102013.69;4899754;29;20050;-86
2023/06/06 08:10:31;;;;;;;14.38;8.18;;;;;;;17.68;63.04;102063.38;4882895;29;20047;-86
2023/06/06 08:13:00;;;;;;;18.60;7.47;;;;;;;17.65;64.03;102064.47;4899390;29;20033;-88
2023/06/06 08:15:26;;;;;;;12.77;7.30;;;;;;;17.38;64.39;102040.34;4899334;29;20057;-86
2023/06/06 08:17:51;;;;;;;11.75;7.10;;;;;;;17.44;64.41;102035.53;4899210;29;20060;-87
2023/06/06 08:20:20;;;;;;;13.35;7.80;;;;;;;17.38;64.13;101999.41;4897529;29;20029;-87
2023/06/06 08:22:49;;;;;;;12.02;7.85;;;;;;;17.93;64.02;102059.84;4905361;29;20036;-85
2023/06/06 08:25:17;;;;;;;12.32;7.40;;;;;;;18.08;64.31;102056.06;4900295;29;20053;-85
2023/06/06 08:27:42;;;;;;;13.48;7.93;;;;;;;18.22;64.63;102053.25;4898892;29;20063;-81
2023/06/06 08:30:09;;;;;;;11.00;7.55;;;;;;;18.14;63.25;102060.03;4898973;29;20067;-84
2023/06/06 08:32:34;;;;;;;13.65;7.68;;;;;;;17.99;64.32;102039.31;4898409;29;20504;-82
2023/06/06 08:35:03;;;;;;;13.10;8.02;;;;;;;17.94;63.06;102053.66;4898808;29;20060;-85
2023/06/06 08:37:28;;;;;;;15.68;7.97;;;;;;;17.81;64.90;102038.09;4897664;29;20392;-84
2023/06/06 08:39:54;;;;;;;13.77;7.97;;;;;;;18.18;66.74;102046.59;4899511;29;20025;-84
2023/06/06 08:42:22;;;;;;;12.55;7.63;;;;;;;17.93;63.38;102005.78;4899351;29;20025;-77
2023/06/06 08:44:49;;;;;;;11.50;7.35;;;;;;;18.35;64.00;102058.38;4898681;29;20095;-82
2023/06/06 08:47:15;;;;;;;14.32;7.28;;;;;;;18.20;63.91;102020.34;4898457;29;20484;-85
2023/06/06 08:49:41;;;;;;;12.35;7.88;;;;;;;18.52;63.80;102057.09;4897009;29;20040;-79
2023/06/06 08:52:07;;;;;;;11.25;7.60;;;;;;;18.57;62.98;102052.34;4898826;29;20088;-81
2023/06/06 08:54:32;;;;;;;12.30;7.53;;;;;;;18.39;63.06;102027.63;4898451;29;20437;-80
2023/06/06 08:57:08;;;;;;;15.05;8.27;;;;;;;18.39;62.85;102044.16;4897143;29;20127;-80
2023/06/06 08:59:38;;;;;;;14.48;7.97;;;;;;;18.32;62.73;102035.94;4895912;29;20040;-82
2023/06/06 09:02:06;;;;;;;12.20;7.90;;;;;;;18.26;63.20;102033.78;4898249;29;20392;-82
2023/06/06 09:04:33;;;;;;;11.38;8.10;;;;;;;18.51;64.36;102048.44;4898259;29;20029;-80
2023/06/06 09:07:04;;;;;;;12.75;8.13;;;;;;;18.48;64.02;102053.03;4898565;29;20421;-86
2023/06/06 09:09:32;;;;;;;13.45;7.80;;;;;;;18.53;65.20;102036.06;4898823;29;20034;-84
2023/06/06 09:11:57;;;;;;;12.40;7.55;;;;;;;18.75;62.54;102043.09;4905938;29;20040;-85
2023/06/06 09:14:23;;;;;;;11.15;6.82;;;;;;;18.57;63.55;101990.38;4899035;29;20043;-85
2023/06/06 09:16:53;;;;;;;12.23;7.78;;;;;;;18.76;63.53;102018.59;4897932;29;20037;-82
2023/06/06 09:19:29;;;;;;;16.37;7.90;;;;;;;19.00;62.63;102039.38;4898320;29;20477;-81
2023/06/06 09:21:58;;;;;;;11.10;7.15;;;;;;;19.19;63.91;102046.59;4898319;29;20064;-85
2023/06/06 09:24:24;;;;;;;10.95;7.07;;;;;;;19.40;63.67;102042.25;4897978;29;20115;-83
2023/06/06 09:26:52;;;;;;;11.75;7.40;;;;;;;19.20;59.71;102025.53;4898101;29;20136;-82
2023/06/06 09:29:17;;;;;;;12.65;7.97;;;;;;;19.16;59.98;102025.88;4898016;29;20091;-81
2023/06/06 09:31:43;;;;;;;11.90;6.95;;;;;;;19.15;62.47;101995.41;4897612;29;20036;-82
2023/06/06 09:34:09;;;;;;;12.27;7.75;;;;;;;19.56;61.26;102036.63;5026022;23;20004;-79
2023/06/06 09:36:42;;;;;;;11.88;7.22;;;;;;;19.15;61.82;101956.97;4874115;29;20079;-80
2023/06/06 09:39:13;;;;;;;14.77;7.93;;;;;;;19.10;61.32;101926.91;4877683;29;20075;-83
2023/06/06 09:41:39;;;;;;;;;;;;;;;19.85;61.10;102025.53;4879567;29;20060;-82
2023/06/06 09:44:28;;;;;;;11.70;7.00;;;;;;;19.98;61.16;102028.81;4878952;29;19912;-79
2023/06/06 09:47:01;;;;;;;11.75;7.07;;;;;;;19.99;60.65;102022.59;4878767;29;20029;-81
2023/06/06 09:49:36;;;;;;;11.40;7.40;;;;;;;20.04;59.54;102023.03;4879056;29;20017;-81
2023/06/06 09:52:05;;;;;;;11.15;7.18;;;;;;;20.16;58.91;102014.16;4879160;29;20033;-80
2023/06/06 09:54:31;;;;;;;11.10;7.40;;;;;;;20.09;59.00;102020.84;4876919;29;20017;-78
2023/06/06 09:56:57;;;;;;;11.02;7.20;;;;;;;20.27;60.53;102018.47;4860434;29;20090;-79
2023/06/06 09:59:25;;;;;;;13.50;6.60;;;;;;;20.26;58.07;102017.66;4860402;29;20061;-80
2023/06/06 10:01:59;;;;;;;12.30;6.25;;;;;;;20.39;58.15;102020.03;4860386;29;20025;-79
2023/06/06 10:04:25;;;;;;;12.27;6.50;;;;;;;20.32;58.70;102005.78;4860345;29;20108;-78
2023/06/06 10:06:53;;;;;;;10.60;6.82;;;;;;;20.39;57.14;102021.84;4860244;29;20029;-79
2023/06/06 10:09:20;;;;;;;10.40;6.68;;;;;;;20.35;57.65;102013.38;4860493;29;20046;-78
2023/06/06 10:11:46;;;;;;;9.98;6.15;;;;;;;20.17;57.95;101999.22;4860305;29;20465;-76
2023/06/06 10:14:14;;;;;;;9.63;6.60;;;;;;;20.14;59.46;101975.88;4843674;29;20055;-78
2023/06/06 10:16:40;;;;;;;10.70;6.63;;;;;;;20.37;58.04;102011.47;4860180;29;20537;-78
2023/06/06 10:19:11;;;;;;;10.57;6.90;;;;;;;20.31;58.16;101998.88;4860026;29;20121;-79
2023/06/06 10:21:37;;;;;;;;;;;;;;;20.34;58.65;102012.53;4858927;29;20025;-79
2023/06/06 10:24:03;;;;;;;11.45;6.78;;;;;;;20.21;57.82;101975.22;4860433;29;19923;-79
2023/06/06 10:26:53;;;;;;;10.68;6.80;;;;;;;20.26;57.81;101949.44;4859982;29;20034;-79
2023/06/06 10:29:45;;;;;;;9.90;6.60;;;;;;;20.72;57.15;102005.81;4860112;29;20495;-78
2023/06/06 10:32:16;;;;;;;15.68;6.53;;;;;;;20.57;57.02;101984.38;4873950;29;20048;-80
2023/06/06 10:34:47;;;;;;;10.85;6.60;;;;;;;20.80;56.37;102011.22;4879231;29;20173;-78
2023/06/06 10:37:17;;;;;;;10.77;6.38;;;;;;;20.73;57.16;101983.03;4878640;29;20495;-80
2023/06/06 10:39:45;;;;;;;18.13;6.38;;;;;;;20.69;56.94;101964.09;4878491;29;20065;-77
2023/06/06 10:42:11;;;;;;;12.15;6.72;;;;;;;21.09;56.94;102007.84;4877056;29;20366;-78
2023/06/06 10:44:45;;;;;;;12.63;6.00;;;;;;;21.27;56.95;102011.50;4881604;29;20032;-78
2023/06/06 10:47:32;;;;;;;11.15;6.47;;;;;;;21.39;55.84;102005.13;4881868;29;20473;-75
2023/06/06 10:50:13;;;;;;;11.10;6.72;;;;;;;21.34;56.16;102004.72;4888705;23;20430;-77
2023/06/06 10:52:45;;;;;;;13.13;6.63;;;;;;;21.29;54.91;102009.53;4881876;29;20101;-77
2023/06/06 10:55:33;;;;;;;12.20;6.15;;;;;;;21.29;55.44;102003.47;4882022;29;20048;-82
2023/06/06 10:58:10;;;;;;;13.18;6.50;;;;;;;21.16;54.52;101972.19;4881711;29;20040;-77
2023/06/06 11:00:40;;;;;;;9.60;6.07;;;;;;;21.30;54.76;101995.44;4881931;29;20025;-78
2023/06/06 11:03:15;;;;;;;14.25;6.47;;;;;;;20.45;55.75;101842.91;4889044;23;20021;-81
2023/06/06 11:06:21;;;;;;;11.32;6.95;;;;;;;21.52;55.61;102009.25;4844990;29;20037;-80
2023/06/06 11:09:17;;;;;;;9.25;5.68;;;;;;;21.45;57.28;101959.91;4844794;29;20409;-78
2023/06/06 11:11:50;;;;;;;11.32;5.55;;;;;;;21.55;55.84;101940.66;4830206;29;20491;-78
2023/06/06 11:14:22;;;;;;;9.40;5.80;;;;;;;21.75;54.06;101979.09;4843661;29;20033;-78
2023/06/06 11:16:56;;;;;;;11.70;5.95;;;;;;;21.89;53.39;101978.63;4844817;29;20387;-76
2023/06/06 11:19:30;;;;;;;8.88;5.55;;;;;;;21.83;53.71;101981.84;4844475;29;20129;-77
2023/06/06 11:22:00;;;;;;;11.98;5.60;;;;;;;21.77;53.02;101983.22;4844453;29;20104;-79